createdAt,value
2019-01-17T00:00:07.933Z,87.97
2019-01-17T00:02:55.512Z,89.39
2019-01-17T00:08:19.174Z,87.13
2019-01-17T00:11:06.915Z,88.93
2019-01-17T00:16:34.022Z,87.83
2019-01-17T00:19:21.524Z,90.05
2019-01-17T00:27:23.923Z,91.63
2019-01-17T00:33:00.516Z,89.52
2019-01-17T00:35:48.255Z,89.66
2019-01-17T00:38:35.763Z,89.01
2019-01-17T00:44:12.440Z,89.71
2019-01-17T00:46:59.947Z,89.91
2019-01-17T00:49:47.461Z,89.42
2019-01-17T00:55:45.093Z,92.32
2019-01-17T00:58:32.687Z,89.79
2019-01-17T01:01:20.199Z,89.44
2019-01-17T01:04:27.056Z,89.02
2019-01-17T01:07:14.572Z,88.55
2019-01-17T01:10:02.329Z,88.03
2019-01-17T01:12:49.848Z,88.36
2019-01-17T01:15:58.140Z,86.71
2019-01-17T01:18:45.658Z,89.37
2019-01-17T01:21:33.163Z,89.84
2019-01-17T01:24:20.681Z,90.36
2019-01-17T01:27:08.186Z,91.02
2019-01-17T01:29:55.941Z,93.79
2019-01-17T01:35:32.553Z,90.60
2019-01-17T01:38:20.058Z,92.65
2019-01-17T01:41:07.578Z,91.88
2019-01-17T01:43:55.324Z,96.04
2019-01-17T01:49:18.172Z,92.24
2019-01-17T01:54:22.319Z,94.76
2019-01-17T01:56:50.643Z,94.70
2019-01-17T01:59:19.045Z,95.97
2019-01-17T02:01:47.499Z,94.76
2019-01-17T02:04:15.901Z,95.17
2019-01-17T02:06:44.306Z,94.49
2019-01-17T02:09:12.715Z,95.00
2019-01-17T02:11:41.116Z,98.21
2019-01-17T02:14:49.425Z,97.73
2019-01-17T02:20:46.905Z,94.30
2019-01-17T02:23:15.296Z,93.55
2019-01-17T02:25:43.704Z,92.67
2019-01-17T02:28:12.105Z,92.68
2019-01-17T02:30:40.807Z,92.51
2019-01-17T02:33:09.224Z,92.83
2019-01-17T02:35:37.603Z,91.83
2019-01-17T02:38:06.080Z,91.58
2019-01-17T02:40:34.473Z,93.37
2019-01-17T02:43:03.208Z,93.31
2019-01-17T02:45:31.673Z,93.85
2019-01-17T02:48:00.077Z,93.80
2019-01-17T02:50:28.775Z,93.29
2019-01-17T02:52:57.185Z,94.59
2019-01-17T02:55:25.574Z,93.29
2019-01-17T02:57:53.981Z,94.26
2019-01-17T03:00:22.392Z,93.79
2019-01-17T03:02:50.791Z,94.62
2019-01-17T03:05:19.195Z,93.39
2019-01-17T03:07:47.592Z,91.90
2019-01-17T03:10:55.920Z,92.71
2019-01-17T03:13:24.308Z,91.95
2019-01-17T03:15:52.706Z,92.64
2019-01-17T03:18:21.104Z,94.39
2019-01-17T03:20:49.594Z,92.33
2019-01-17T03:23:17.983Z,95.42
2019-01-17T03:25:46.707Z,93.91
2019-01-17T03:28:15.411Z,96.15
2019-01-17T03:30:44.090Z,95.26
2019-01-17T03:33:12.769Z,96.32
2019-01-17T03:35:41.454Z,96.21
2019-01-17T03:38:10.148Z,94.63
2019-01-17T03:43:32.903Z,94.52
2019-01-17T03:46:01.296Z,93.99
2019-01-17T03:48:29.971Z,93.57
2019-01-17T03:50:58.660Z,93.40
2019-01-17T03:53:27.287Z,92.73
2019-01-17T03:58:35.476Z,93.74
2019-01-17T04:01:03.932Z,92.76
2019-01-17T04:03:32.325Z,93.75
2019-01-17T04:06:01.019Z,93.86
2019-01-17T04:08:29.412Z,93.75
2019-01-17T04:10:57.809Z,93.80
2019-01-17T04:13:26.220Z,95.47
2019-01-17T04:15:54.620Z,96.13
2019-01-17T04:18:23.017Z,94.92
2019-01-17T04:21:10.769Z,95.00
2019-01-17T04:23:39.161Z,95.24
2019-01-17T04:26:07.552Z,94.07
2019-01-17T04:28:35.961Z,96.62
2019-01-17T04:31:04.488Z,95.30
2019-01-17T04:33:32.886Z,95.23
2019-01-17T04:36:01.297Z,94.95
2019-01-17T04:38:29.690Z,95.57
2019-01-17T04:41:17.739Z,95.62
2019-01-17T04:43:46.131Z,97.08
2019-01-17T04:46:14.535Z,96.79
2019-01-17T04:48:42.932Z,95.35
2019-01-17T04:51:11.663Z,97.37
2019-01-17T04:53:40.055Z,97.66
2019-01-17T04:56:08.463Z,95.61
2019-01-17T04:58:37.107Z,96.56
2019-01-17T05:01:05.579Z,96.29
2019-01-17T05:03:33.985Z,95.96
2019-01-17T05:06:02.665Z,96.12
2019-01-17T05:08:31.062Z,96.24
2019-01-17T05:10:59.468Z,96.57
2019-01-17T05:13:27.878Z,95.58
2019-01-17T05:15:56.587Z,96.90
2019-01-17T05:18:24.981Z,96.31
2019-01-17T05:20:53.421Z,96.66
2019-01-17T05:23:21.814Z,96.11
2019-01-17T05:25:50.206Z,96.89
2019-01-17T05:28:18.897Z,98.03
2019-01-17T05:30:47.301Z,97.20
2019-01-17T05:33:15.961Z,97.96
2019-01-17T05:35:44.371Z,97.17
2019-01-17T05:38:12.756Z,97.68
2019-01-17T05:40:41.396Z,97.07
2019-01-17T05:43:09.802Z,97.20
2019-01-17T05:45:38.204Z,98.70
2019-01-17T05:48:06.598Z,99.26
2019-01-17T05:50:34.999Z,99.60
2019-01-17T05:53:03.460Z,98.94
2019-01-17T05:55:32.095Z,97.80
2019-01-17T05:58:00.772Z,99.09
2019-01-17T06:00:29.556Z,97.46
2019-01-17T06:02:57.944Z,98.34
2019-01-17T06:05:26.721Z,98.33
2019-01-17T06:07:55.118Z,97.50
2019-01-17T06:10:23.506Z,97.99
2019-01-17T06:12:52.984Z,96.75
2019-01-17T06:15:23.209Z,96.34
2019-01-17T06:17:51.599Z,97.49
2019-01-17T06:20:20.148Z,96.97
2019-01-17T06:22:48.538Z,96.43
2019-01-17T06:25:16.931Z,96.82
2019-01-17T06:27:45.329Z,97.64
2019-01-17T06:30:15.267Z,97.43
2019-01-17T06:32:43.733Z,97.62
2019-01-17T06:35:12.874Z,99.85
2019-01-17T06:37:41.597Z,98.19
2019-01-17T06:40:13.049Z,98.28
2019-01-17T06:42:41.464Z,98.16
2019-01-17T06:45:09.862Z,95.81
2019-01-17T06:47:38.253Z,96.35
2019-01-17T06:50:09.572Z,96.33
2019-01-17T06:52:38.027Z,95.69
2019-01-17T06:55:08.529Z,95.05
2019-01-17T06:57:37.043Z,95.46
2019-01-17T07:00:11.221Z,95.40
2019-01-17T07:02:39.683Z,96.12
2019-01-17T07:05:08.909Z,95.65
2019-01-17T07:07:37.364Z,95.25
2019-01-17T07:10:11.950Z,95.35
2019-01-17T07:12:40.354Z,96.88
2019-01-17T07:15:09.997Z,95.72
2019-01-17T07:17:38.421Z,96.47
2019-01-17T07:20:09.838Z,97.25
2019-01-17T07:22:38.234Z,99.20
2019-01-17T07:25:08.663Z,99.23
2019-01-17T07:27:37.064Z,99.56
2019-01-17T07:30:17.323Z,100.00
2019-01-17T07:32:45.748Z,100.00
2019-01-17T07:35:14.203Z,100.00
2019-01-17T07:37:42.596Z,100.00
2019-01-17T07:40:12.747Z,99.40
2019-01-17T07:42:41.130Z,99.62
2019-01-17T07:45:18.223Z,99.09
2019-01-17T07:47:46.878Z,98.30
2019-01-17T07:50:15.397Z,98.50
2019-01-17T07:52:43.868Z,98.75
2019-01-17T07:55:12.507Z,98.18
2019-01-17T07:57:40.951Z,97.96
2019-01-17T08:00:18.123Z,98.87
2019-01-17T08:02:46.522Z,100.00
2019-01-17T08:05:15.258Z,99.36
2019-01-17T08:07:43.980Z,98.73
2019-01-17T08:10:15.182Z,99.80
2019-01-17T08:12:43.949Z,99.21
2019-01-17T08:15:13.891Z,99.79
2019-01-17T08:17:42.359Z,100.00
2019-01-17T08:20:19.122Z,99.50
2019-01-17T08:22:47.656Z,100.00
2019-01-17T08:25:16.219Z,100.00
2019-01-17T08:27:44.753Z,100.00
2019-01-17T08:30:22.281Z,100.00
2019-01-17T08:32:50.698Z,100.00
2019-01-17T08:35:19.456Z,100.00
2019-01-17T08:37:47.851Z,100.00
2019-01-17T08:40:22.231Z,100.00
2019-01-17T08:42:50.944Z,100.00
2019-01-17T08:45:19.395Z,100.00
2019-01-17T08:47:48.108Z,100.00
2019-01-17T08:50:17.610Z,100.00
2019-01-17T08:52:46.404Z,100.00
2019-01-17T08:55:14.877Z,100.00
2019-01-17T08:57:43.339Z,100.00
2019-01-17T09:00:25.757Z,100.00
2019-01-17T09:02:54.212Z,100.00
2019-01-17T09:05:22.602Z,100.00
2019-01-17T09:07:51.010Z,100.00
2019-01-17T09:10:22.434Z,100.00
2019-01-17T09:12:51.262Z,100.00
2019-01-17T09:15:22.513Z,100.00
2019-01-17T09:17:50.987Z,100.00
2019-01-17T09:20:19.389Z,100.00
2019-01-17T09:22:47.770Z,100.00
2019-01-17T09:25:17.423Z,100.00
2019-01-17T09:27:46.134Z,100.00
2019-01-17T09:30:22.169Z,100.00
2019-01-17T09:32:50.977Z,100.00
2019-01-17T09:35:20.073Z,100.00
2019-01-17T09:37:48.942Z,100.00
2019-01-17T09:40:22.350Z,100.00
2019-01-17T09:42:50.901Z,100.00
2019-01-17T09:45:19.435Z,100.00
2019-01-17T09:47:47.971Z,100.00
2019-01-17T09:50:18.309Z,100.00
2019-01-17T09:52:47.226Z,100.00
2019-01-17T09:55:16.018Z,100.00
2019-01-17T09:57:44.400Z,100.00
2019-01-17T10:00:16.262Z,100.00
2019-01-17T10:02:44.647Z,100.00
2019-01-17T10:05:13.097Z,100.00
2019-01-17T10:07:41.562Z,99.55
2019-01-17T10:10:16.012Z,99.41
2019-01-17T10:12:44.460Z,99.14
2019-01-17T10:15:16.027Z,99.64
2019-01-17T10:17:53.435Z,97.19
2019-01-17T10:20:27.748Z,96.22
2019-01-17T10:23:05.074Z,95.21
2019-01-17T10:25:44.041Z,94.93
2019-01-17T10:28:33.736Z,94.36
2019-01-17T10:31:24.579Z,94.06
2019-01-17T10:33:56.029Z,92.98
2019-01-17T10:36:48.436Z,91.17
2019-01-17T10:39:34.717Z,91.53
2019-01-17T10:42:27.341Z,92.81
2019-01-17T10:45:01.366Z,92.58
2019-01-17T10:47:50.643Z,93.54
2019-01-17T10:50:31.205Z,94.23
2019-01-17T10:53:23.985Z,95.82
2019-01-17T10:56:10.731Z,96.16
2019-01-17T10:58:48.453Z,98.20
2019-01-17T11:01:41.088Z,99.13
2019-01-17T11:04:49.439Z,98.65
2019-01-17T11:07:56.655Z,97.17
2019-01-17T11:11:04.939Z,97.16
2019-01-17T11:14:11.918Z,95.28
2019-01-17T11:17:20.262Z,95.65
2019-01-17T11:20:27.239Z,94.61
2019-01-17T11:23:35.602Z,93.39
2019-01-17T11:26:43.883Z,91.65
2019-01-17T11:29:50.857Z,93.00
2019-01-17T11:32:58.063Z,93.48
2019-01-17T11:36:06.362Z,93.39
2019-01-17T11:39:14.721Z,93.41
2019-01-17T11:42:21.700Z,93.62
2019-01-17T11:45:30.052Z,96.66
2019-01-17T11:48:37.014Z,96.87
2019-01-17T11:51:43.991Z,99.25
2019-01-17T11:54:52.279Z,100.00
2019-01-17T11:57:59.256Z,100.00
2019-01-17T12:01:07.838Z,100.00
2019-01-17T12:04:14.828Z,100.00
2019-01-17T12:06:43.482Z,100.00
2019-01-17T12:09:11.865Z,100.00
2019-01-17T12:11:40.271Z,100.00
2019-01-17T12:14:08.928Z,100.00
2019-01-17T12:16:37.314Z,100.00
2019-01-17T12:19:06.095Z,100.00
2019-01-17T12:22:14.390Z,100.00
2019-01-17T12:24:42.792Z,100.00
2019-01-17T12:27:11.172Z,100.00
2019-01-17T12:29:39.555Z,100.00
2019-01-17T12:32:27.290Z,100.00
2019-01-17T12:34:55.963Z,100.00
2019-01-17T12:37:24.358Z,100.00
2019-01-17T12:39:52.752Z,100.00
2019-01-17T12:42:21.126Z,98.30
2019-01-17T12:44:49.763Z,93.30
2019-01-17T12:47:18.137Z,97.12
2019-01-17T12:49:46.531Z,97.77
2019-01-17T12:52:14.914Z,97.02
2019-01-17T12:54:43.290Z,98.64
2019-01-17T12:57:11.689Z,98.06
2019-01-17T12:59:40.374Z,99.35
2019-01-17T13:02:08.822Z,93.88
2019-01-17T13:04:37.213Z,93.62
2019-01-17T13:07:05.910Z,93.84
2019-01-17T13:09:34.309Z,92.53
2019-01-17T13:12:03.077Z,91.48
2019-01-17T13:14:31.765Z,91.83
2019-01-17T13:17:00.158Z,89.35
2019-01-17T13:19:28.614Z,87.54
2019-01-17T13:21:57.006Z,89.30
2019-01-17T13:24:25.457Z,87.59
2019-01-17T13:26:53.826Z,84.37
2019-01-17T13:29:22.228Z,80.52
2019-01-17T13:31:50.607Z,81.78
2019-01-17T13:34:18.982Z,81.98
2019-01-17T13:36:47.682Z,82.08
2019-01-17T13:39:16.123Z,81.73
2019-01-17T13:41:44.509Z,80.11
2019-01-17T13:44:12.905Z,80.94
2019-01-17T13:47:00.621Z,81.41
2019-01-17T13:49:29.014Z,83.02
2019-01-17T13:51:57.723Z,83.00
2019-01-17T13:54:26.114Z,82.67
2019-01-17T13:56:54.581Z,85.79
2019-01-17T13:59:22.959Z,85.58
2019-01-17T14:01:51.350Z,85.30
2019-01-17T14:04:19.781Z,84.01
2019-01-17T14:06:48.407Z,86.38
2019-01-17T14:09:16.805Z,84.84
2019-01-17T14:11:45.185Z,85.05
2019-01-17T14:14:13.600Z,83.54
2019-01-17T14:16:42.221Z,81.99
2019-01-17T14:19:10.603Z,82.90
2019-01-17T14:21:38.977Z,83.87
2019-01-17T14:24:07.386Z,83.56
2019-01-17T14:26:36.052Z,82.42
2019-01-17T14:29:04.609Z,83.28
2019-01-17T14:31:33.317Z,83.40
2019-01-17T14:34:01.697Z,81.68
2019-01-17T14:36:30.078Z,80.94
2019-01-17T14:38:58.471Z,78.78
2019-01-17T14:41:46.488Z,78.74
2019-01-17T14:44:15.191Z,79.93
2019-01-17T14:46:43.574Z,78.94
2019-01-17T14:49:12.240Z,79.52
2019-01-17T14:51:40.632Z,79.46
2019-01-17T14:54:09.078Z,79.99
2019-01-17T14:56:37.465Z,79.41
2019-01-17T14:59:05.863Z,81.76
2019-01-17T15:01:34.247Z,81.39
2019-01-17T15:04:02.694Z,81.26
2019-01-17T15:06:31.405Z,81.06
2019-01-17T15:08:59.803Z,80.23
2019-01-17T15:11:28.186Z,83.54
2019-01-17T15:13:56.844Z,89.55
2019-01-17T15:16:25.236Z,94.00
2019-01-17T15:18:53.853Z,96.89
2019-01-17T15:21:22.254Z,97.48
2019-01-17T15:23:50.643Z,97.16
2019-01-17T15:26:19.026Z,96.23
2019-01-17T15:28:47.522Z,95.71
2019-01-17T15:31:15.912Z,93.54
2019-01-17T15:33:44.298Z,94.59
2019-01-17T15:36:12.692Z,91.95
2019-01-17T15:38:41.349Z,93.56
2019-01-17T15:41:09.734Z,92.07
2019-01-17T15:43:38.142Z,89.64
2019-01-17T15:46:06.900Z,89.55
2019-01-17T15:48:35.583Z,89.98
2019-01-17T15:51:04.118Z,89.53
2019-01-17T15:53:45.127Z,88.37
2019-01-17T15:56:13.827Z,90.23
2019-01-17T15:58:42.216Z,91.38
2019-01-17T16:01:10.612Z,91.98
2019-01-17T16:03:39.012Z,90.04
2019-01-17T16:06:07.393Z,92.45
2019-01-17T16:08:35.798Z,91.89
2019-01-17T16:11:04.178Z,96.34
2019-01-17T16:13:32.585Z,96.26
2019-01-17T16:16:00.984Z,97.13
2019-01-17T16:18:29.645Z,97.80
2019-01-17T16:20:58.331Z,99.17
2019-01-17T16:23:26.735Z,99.66
2019-01-17T16:25:55.120Z,92.10
2019-01-17T16:28:23.788Z,91.58
2019-01-17T16:30:52.463Z,98.80
2019-01-17T16:33:20.867Z,100.00
2019-01-17T16:35:49.538Z,100.00
2019-01-17T16:38:18.015Z,99.99
2019-01-17T16:40:46.690Z,97.64
2019-01-17T16:43:15.076Z,98.69
2019-01-17T16:45:43.766Z,95.55
2019-01-17T16:48:12.162Z,97.11
2019-01-17T16:50:40.558Z,95.08
2019-01-17T16:53:09.184Z,95.65
2019-01-17T16:55:37.853Z,96.10
2019-01-17T16:58:06.482Z,97.00
2019-01-17T17:01:14.828Z,96.86
2019-01-17T17:03:43.205Z,96.50
2019-01-17T17:06:31.192Z,96.70
2019-01-17T17:08:59.576Z,94.57
2019-01-17T17:11:28.373Z,94.68
2019-01-17T17:13:57.053Z,96.05
2019-01-17T17:16:25.439Z,93.90
2019-01-17T17:18:53.823Z,92.26
2019-01-17T17:21:22.221Z,91.61
2019-01-17T17:23:50.605Z,95.88
2019-01-17T17:26:18.989Z,100.00
2019-01-17T17:28:47.509Z,100.00
2019-01-17T17:31:15.938Z,100.00
2019-01-17T17:33:44.326Z,100.00
2019-01-17T17:36:12.743Z,100.00
2019-01-17T17:38:41.133Z,100.00
2019-01-17T17:41:09.531Z,100.00
2019-01-17T17:43:37.914Z,100.00
2019-01-17T17:46:06.367Z,100.00
2019-01-17T17:48:34.778Z,100.00
2019-01-17T17:51:10.186Z,100.00
2019-01-17T17:53:38.579Z,100.00
2019-01-17T17:56:07.380Z,100.00
2019-01-17T17:58:35.852Z,100.00
2019-01-17T18:03:53.394Z,100.00
2019-01-17T18:06:22.045Z,100.00
2019-01-17T18:08:50.431Z,100.00
2019-01-17T18:11:18.824Z,100.00
2019-01-17T18:13:47.220Z,100.00
2019-01-17T18:16:15.611Z,100.00
2019-01-17T18:18:44.035Z,100.00
2019-01-17T18:21:12.497Z,100.00
2019-01-17T18:23:41.198Z,100.00
2019-01-17T18:26:09.882Z,100.00
2019-01-17T18:28:38.271Z,100.00
2019-01-17T18:31:06.669Z,100.00
2019-01-17T18:33:35.069Z,100.00
2019-01-17T18:36:03.706Z,100.00
2019-01-17T18:38:32.115Z,100.00
2019-01-17T18:41:00.499Z,100.00
2019-01-17T18:43:28.880Z,100.00
2019-01-17T18:45:57.698Z,100.00
2019-01-17T18:48:26.184Z,100.00
2019-01-17T18:50:54.673Z,100.00
2019-01-17T18:53:23.077Z,100.00
2019-01-17T18:55:51.531Z,100.00
2019-01-17T18:58:19.921Z,100.00
2019-01-17T19:00:48.388Z,100.00
2019-01-17T19:03:16.848Z,100.00
2019-01-17T19:05:45.580Z,100.00
2019-01-17T19:08:13.982Z,100.00
2019-01-17T19:10:42.510Z,100.00
2019-01-17T19:13:10.894Z,100.00
2019-01-17T19:15:39.303Z,100.00
2019-01-17T19:18:07.691Z,100.00
2019-01-17T19:20:37.647Z,100.00
2019-01-17T19:23:05.952Z,100.00
2019-01-17T19:25:34.338Z,100.00
2019-01-17T19:28:03.037Z,100.00
2019-01-17T19:30:31.580Z,100.00
2019-01-17T19:33:00.044Z,100.00
2019-01-17T19:35:28.890Z,100.00
2019-01-17T19:37:57.577Z,100.00
2019-01-17T19:40:28.502Z,100.00
2019-01-17T19:42:56.960Z,100.00
2019-01-17T19:45:25.679Z,100.00
2019-01-17T19:47:54.472Z,100.00
2019-01-17T19:50:28.231Z,100.00
2019-01-17T19:52:56.778Z,100.00
2019-01-17T19:55:26.298Z,100.00
2019-01-17T19:57:54.951Z,100.00
2019-01-17T20:00:23.424Z,100.00
2019-01-17T20:02:52.222Z,100.00
2019-01-17T20:05:26.532Z,100.00
2019-01-17T20:07:55.231Z,100.00
2019-01-17T20:10:28.964Z,100.00
2019-01-17T20:12:57.511Z,100.00
2019-01-17T20:15:26.304Z,100.00
2019-01-17T20:17:54.829Z,100.00
2019-01-17T20:20:23.313Z,100.00
2019-01-17T20:22:51.703Z,100.00
2019-01-17T20:25:20.427Z,100.00
2019-01-17T20:27:48.831Z,100.00
2019-01-17T20:30:19.930Z,100.00
2019-01-17T20:32:48.655Z,100.00
2019-01-17T20:35:17.422Z,100.00
2019-01-17T20:37:46.212Z,100.00
2019-01-17T20:40:17.340Z,100.00
2019-01-17T20:42:45.737Z,100.00
2019-01-17T20:45:14.150Z,100.00
2019-01-17T20:47:42.671Z,100.00
2019-01-17T20:50:14.410Z,100.00
2019-01-17T20:52:42.894Z,100.00
2019-01-17T20:55:12.325Z,100.00
2019-01-17T20:57:41.390Z,100.00
2019-01-17T21:00:20.077Z,100.00
2019-01-17T21:02:48.540Z,100.00
2019-01-17T21:05:17.327Z,100.00
2019-01-17T21:07:45.724Z,100.00
2019-01-17T21:10:16.155Z,100.00
2019-01-17T21:12:44.536Z,100.00
2019-01-17T21:15:14.577Z,100.00
2019-01-17T21:17:43.030Z,100.00
2019-01-17T21:20:14.882Z,100.00
2019-01-17T21:22:43.281Z,100.00
2019-01-17T21:25:14.672Z,100.00
2019-01-17T21:27:43.379Z,100.00
2019-01-17T21:30:20.621Z,100.00
2019-01-17T21:32:49.022Z,100.00
2019-01-17T21:35:17.412Z,100.00
2019-01-17T21:37:45.797Z,100.00
2019-01-17T21:40:19.510Z,100.00
2019-01-17T21:42:47.958Z,100.00
2019-01-17T21:45:17.986Z,100.00
2019-01-17T21:47:46.385Z,100.00
2019-01-17T21:50:17.839Z,100.00
2019-01-17T21:52:46.243Z,100.00
2019-01-17T21:55:14.630Z,100.00
2019-01-17T21:57:43.017Z,100.00
2019-01-17T22:00:17.155Z,100.00
2019-01-17T22:02:45.544Z,100.00
2019-01-17T22:05:13.996Z,100.00
2019-01-17T22:07:42.454Z,100.00
2019-01-17T22:10:13.874Z,100.00
2019-01-17T22:12:42.264Z,100.00
2019-01-17T22:15:14.106Z,100.00
2019-01-17T22:17:42.493Z,100.00
2019-01-17T22:20:12.523Z,100.00
2019-01-17T22:22:41.195Z,100.00
2019-01-17T22:25:12.421Z,100.00
2019-01-17T22:27:40.879Z,100.00
2019-01-17T22:30:15.231Z,100.00
2019-01-17T22:32:43.616Z,100.00
2019-01-17T22:35:12.075Z,100.00
2019-01-17T22:37:40.479Z,100.00
2019-01-17T22:40:12.245Z,100.00
2019-01-17T22:42:40.633Z,100.00
2019-01-17T22:45:15.245Z,100.00
2019-01-17T22:47:43.930Z,100.00
2019-01-17T22:50:19.295Z,100.00
2019-01-17T22:52:48.819Z,100.00
2019-01-17T22:55:17.459Z,100.00
2019-01-17T22:57:45.866Z,100.00
2019-01-17T23:00:30.761Z,100.00
2019-01-17T23:02:59.155Z,100.00
2019-01-17T23:05:27.541Z,100.00
2019-01-17T23:07:55.951Z,100.00
2019-01-17T23:10:24.332Z,100.00
2019-01-17T23:12:52.715Z,100.00
2019-01-17T23:15:21.116Z,100.00
2019-01-17T23:17:49.764Z,100.00
2019-01-17T23:20:18.456Z,100.00
2019-01-17T23:22:46.846Z,100.00
2019-01-17T23:25:15.518Z,100.00
2019-01-17T23:27:43.920Z,100.00
2019-01-17T23:30:15.660Z,100.00
2019-01-17T23:32:44.020Z,100.00
2019-01-17T23:35:12.417Z,100.00
2019-01-17T23:37:40.804Z,100.00
2019-01-17T23:40:10.854Z,100.00
2019-01-17T23:42:39.234Z,100.00
2019-01-17T23:45:08.768Z,100.00
2019-01-17T23:47:37.159Z,100.00
2019-01-17T23:50:08.309Z,100.00
2019-01-17T23:52:36.692Z,100.00
2019-01-17T23:55:06.427Z,100.00
2019-01-17T23:57:34.883Z,100.00
